Terminal Aerodrome Forecast
Issued by NWS

Home | Current Version | Previous Version | Graphics & Text | Print | Product List | Glossary Off
Versions: 1 2 3 4 5 6 7 8 9 10 11 12 13

000
FTUS42 KMHX 062325
TAFOAJ
TAF
KOAJ 062325Z 0700/0724 05005KT P6SM SCT040 BKN150
     FM070900 03010KT P6SM SCT035 BKN100
     FM071400 05012G20KT P6SM SHRA SCT020 BKN040
     FM071800 04012G20KT 5SM SHRA BKN025
      AMD LTD TO CLD VIS AND WIND=

USA.gov is the U.S. government's official web portal to all federal, state and local government web resources and services.